sensor_id;sensor_type;location;lat;lon;timestamp;P1;durP1;ratioP1;P2;durP2;ratioP2
20621;SDS011;10470;42.670;23.354;2024-02-23T00:01:49;14.03;;;9.10;;
20621;SDS011;10470;42.670;23.354;2024-02-23T00:04:14;13.90;;;9.77;;
20621;SDS011;10470;42.670;23.354;2024-02-23T00:06:40;14.47;;;10.37;;
20621;SDS011;10470;42.670;23.354;2024-02-23T00:09:05;15.10;;;9.73;;
20621;SDS011;10470;42.670;23.354;2024-02-23T00:11:30;14.03;;;10.13;;
20621;SDS011;10470;42.670;23.354;2024-02-23T00:13:57;14.27;;;9.90;;
20621;SDS011;10470;42.670;23.354;2024-02-23T00:16:23;13.93;;;9.67;;
20621;SDS011;10470;42.670;23.354;2024-02-23T00:18:48;14.47;;;10.57;;
20621;SDS011;10470;42.670;23.354;2024-02-23T00:21:13;16.23;;;9.70;;
20621;SDS011;10470;42.670;23.354;2024-02-23T00:23:38;14.83;;;10.33;;
20621;SDS011;10470;42.670;23.354;2024-02-23T00:26:04;13.07;;;9.10;;
20621;SDS011;10470;42.670;23.354;2024-02-23T00:28:29;14.90;;;9.57;;
20621;SDS011;10470;42.670;23.354;2024-02-23T00:30:54;12.63;;;9.50;;
20621;SDS011;10470;42.670;23.354;2024-02-23T00:33:19;13.17;;;9.90;;
20621;SDS011;10470;42.670;23.354;2024-02-23T00:35:45;14.60;;;9.73;;
20621;SDS011;10470;42.670;23.354;2024-02-23T00:38:10;14.07;;;9.40;;
20621;SDS011;10470;42.670;23.354;2024-02-23T00:40:36;14.00;;;9.47;;
20621;SDS011;10470;42.670;23.354;2024-02-23T00:43:01;12.33;;;9.17;;
20621;SDS011;10470;42.670;23.354;2024-02-23T00:45:28;14.97;;;9.57;;
20621;SDS011;10470;42.670;23.354;2024-02-23T00:47:53;15.57;;;10.00;;
20621;SDS011;10470;42.670;23.354;2024-02-23T00:50:18;13.90;;;9.10;;
20621;SDS011;10470;42.670;23.354;2024-02-23T00:52:44;12.10;;;9.10;;
20621;SDS011;10470;42.670;23.354;2024-02-23T00:55:09;13.77;;;9.33;;
20621;SDS011;10470;42.670;23.354;2024-02-23T00:57:35;12.43;;;9.00;;
20621;SDS011;10470;42.670;23.354;2024-02-23T01:00:01;13.37;;;8.83;;
20621;SDS011;10470;42.670;23.354;2024-02-23T01:02:28;13.80;;;9.10;;
20621;SDS011;10470;42.670;23.354;2024-02-23T01:04:53;13.10;;;9.37;;
20621;SDS011;10470;42.670;23.354;2024-02-23T01:07:22;13.30;;;9.87;;
20621;SDS011;10470;42.670;23.354;2024-02-23T01:09:47;13.10;;;9.40;;
20621;SDS011;10470;42.670;23.354;2024-02-23T01:12:12;15.30;;;9.47;;
20621;SDS011;10470;42.670;23.354;2024-02-23T01:14:37;11.37;;;8.83;;
20621;SDS011;10470;42.670;23.354;2024-02-23T01:17:03;12.53;;;9.20;;
20621;SDS011;10470;42.670;23.354;2024-02-23T01:19:28;13.80;;;9.10;;
20621;SDS011;10470;42.670;23.354;2024-02-23T01:21:53;13.73;;;9.47;;
20621;SDS011;10470;42.670;23.354;2024-02-23T01:24:24;14.60;;;9.50;;
20621;SDS011;10470;42.670;23.354;2024-02-23T01:26:51;12.93;;;9.03;;
20621;SDS011;10470;42.670;23.354;2024-02-23T01:29:16;13.27;;;9.20;;
20621;SDS011;10470;42.670;23.354;2024-02-23T01:31:42;13.80;;;9.03;;
20621;SDS011;10470;42.670;23.354;2024-02-23T01:34:07;13.03;;;9.00;;
20621;SDS011;10470;42.670;23.354;2024-02-23T01:36:32;15.60;;;9.70;;
20621;SDS011;10470;42.670;23.354;2024-02-23T01:38:58;12.40;;;8.90;;
20621;SDS011;10470;42.670;23.354;2024-02-23T01:41:23;11.17;;;8.93;;
20621;SDS011;10470;42.670;23.354;2024-02-23T01:43:48;15.70;;;9.77;;
20621;SDS011;10470;42.670;23.354;2024-02-23T01:46:14;14.13;;;9.50;;
20621;SDS011;10470;42.670;23.354;2024-02-23T01:48:43;13.93;;;9.17;;
20621;SDS011;10470;42.670;23.354;2024-02-23T01:51:09;12.40;;;8.77;;
20621;SDS011;10470;42.670;23.354;2024-02-23T01:53:34;17.83;;;9.00;;
20621;SDS011;10470;42.670;23.354;2024-02-23T01:55:59;15.90;;;9.50;;
20621;SDS011;10470;42.670;23.354;2024-02-23T01:58:25;13.73;;;9.00;;
20621;SDS011;10470;42.670;23.354;2024-02-23T02:00:51;12.60;;;9.27;;
20621;SDS011;10470;42.670;23.354;2024-02-23T02:03:16;12.57;;;8.93;;
20621;SDS011;10470;42.670;23.354;2024-02-23T02:05:42;12.90;;;9.50;;
20621;SDS011;10470;42.670;23.354;2024-02-23T02:08:09;14.50;;;9.57;;
20621;SDS011;10470;42.670;23.354;2024-02-23T02:10:35;14.17;;;9.00;;
20621;SDS011;10470;42.670;23.354;2024-02-23T02:13:04;12.37;;;8.97;;
20621;SDS011;10470;42.670;23.354;2024-02-23T02:15:29;12.60;;;9.27;;
20621;SDS011;10470;42.670;23.354;2024-02-23T02:17:55;14.17;;;9.10;;
20621;SDS011;10470;42.670;23.354;2024-02-23T02:20:21;13.93;;;10.07;;
20621;SDS011;10470;42.670;23.354;2024-02-23T02:22:48;12.90;;;8.97;;
20621;SDS011;10470;42.670;23.354;2024-02-23T02:25:14;13.40;;;9.30;;
20621;SDS011;10470;42.670;23.354;2024-02-23T02:27:40;12.63;;;9.40;;
20621;SDS011;10470;42.670;23.354;2024-02-23T02:30:06;14.60;;;9.60;;
20621;SDS011;10470;42.670;23.354;2024-02-23T02:32:31;14.03;;;9.37;;
20621;SDS011;10470;42.670;23.354;2024-02-23T02:34:57;12.83;;;8.87;;
20621;SDS011;10470;42.670;23.354;2024-02-23T02:37:22;15.03;;;9.17;;
20621;SDS011;10470;42.670;23.354;2024-02-23T02:39:47;13.07;;;9.00;;
20621;SDS011;10470;42.670;23.354;2024-02-23T02:42:12;13.30;;;9.10;;
20621;SDS011;10470;42.670;23.354;2024-02-23T02:44:38;14.23;;;9.70;;
20621;SDS011;10470;42.670;23.354;2024-02-23T02:47:03;14.13;;;9.00;;
20621;SDS011;10470;42.670;23.354;2024-02-23T02:49:28;15.33;;;9.30;;
20621;SDS011;10470;42.670;23.354;2024-02-23T02:51:54;13.57;;;9.23;;
20621;SDS011;10470;42.670;23.354;2024-02-23T02:54:19;13.10;;;9.27;;
20621;SDS011;10470;42.670;23.354;2024-02-23T02:56:45;12.17;;;9.13;;
20621;SDS011;10470;42.670;23.354;2024-02-23T02:59:11;12.90;;;9.53;;
20621;SDS011;10470;42.670;23.354;2024-02-23T03:01:36;14.77;;;10.27;;
20621;SDS011;10470;42.670;23.354;2024-02-23T03:04:02;13.93;;;9.53;;
20621;SDS011;10470;42.670;23.354;2024-02-23T03:06:27;13.23;;;9.63;;
20621;SDS011;10470;42.670;23.354;2024-02-23T03:08:52;13.90;;;9.17;;
20621;SDS011;10470;42.670;23.354;2024-02-23T03:11:17;13.37;;;9.17;;
20621;SDS011;10470;42.670;23.354;2024-02-23T03:13:43;13.70;;;9.10;;
20621;SDS011;10470;42.670;23.354;2024-02-23T03:16:17;13.73;;;9.47;;
20621;SDS011;10470;42.670;23.354;2024-02-23T03:18:43;14.50;;;9.57;;
20621;SDS011;10470;42.670;23.354;2024-02-23T03:21:09;16.80;;;9.23;;
20621;SDS011;10470;42.670;23.354;2024-02-23T03:23:35;15.13;;;9.30;;
20621;SDS011;10470;42.670;23.354;2024-02-23T03:26:00;12.53;;;8.87;;
20621;SDS011;10470;42.670;23.354;2024-02-23T03:28:25;13.83;;;9.57;;
20621;SDS011;10470;42.670;23.354;2024-02-23T03:30:51;13.83;;;9.77;;
20621;SDS011;10470;42.670;23.354;2024-02-23T03:33:16;14.50;;;9.80;;
20621;SDS011;10470;42.670;23.354;2024-02-23T03:35:41;13.70;;;9.83;;
20621;SDS011;10470;42.670;23.354;2024-02-23T03:38:06;13.40;;;9.87;;
20621;SDS011;10470;42.670;23.354;2024-02-23T03:40:32;12.67;;;9.40;;
20621;SDS011;10470;42.670;23.354;2024-02-23T03:42:57;16.40;;;10.13;;
20621;SDS011;10470;42.670;23.354;2024-02-23T03:45:22;14.87;;;9.27;;
20621;SDS011;10470;42.670;23.354;2024-02-23T03:47:48;15.33;;;10.00;;
20621;SDS011;10470;42.670;23.354;2024-02-23T03:50:13;13.43;;;9.77;;
20621;SDS011;10470;42.670;23.354;2024-02-23T03:52:38;16.10;;;10.00;;
20621;SDS011;10470;42.670;23.354;2024-02-23T03:55:04;13.77;;;10.10;;
20621;SDS011;10470;42.670;23.354;2024-02-23T03:57:29;14.80;;;10.53;;
20621;SDS011;10470;42.670;23.354;2024-02-23T03:59:55;16.87;;;9.80;;
20621;SDS011;10470;42.670;23.354;2024-02-23T04:02:20;15.73;;;10.23;;
20621;SDS011;10470;42.670;23.354;2024-02-23T04:04:47;16.27;;;10.53;;
20621;SDS011;10470;42.670;23.354;2024-02-23T04:07:13;14.53;;;10.10;;
20621;SDS011;10470;42.670;23.354;2024-02-23T04:09:38;14.13;;;9.77;;
20621;SDS011;10470;42.670;23.354;2024-02-23T04:12:03;14.33;;;9.83;;
20621;SDS011;10470;42.670;23.354;2024-02-23T04:14:29;14.43;;;9.83;;
20621;SDS011;10470;42.670;23.354;2024-02-23T04:16:54;15.00;;;10.37;;
20621;SDS011;10470;42.670;23.354;2024-02-23T04:19:19;13.10;;;10.10;;
20621;SDS011;10470;42.670;23.354;2024-02-23T04:21:45;15.43;;;10.60;;
20621;SDS011;10470;42.670;23.354;2024-02-23T04:24:10;14.07;;;9.77;;
20621;SDS011;10470;42.670;23.354;2024-02-23T04:26:35;15.27;;;10.30;;
20621;SDS011;10470;42.670;23.354;2024-02-23T04:29:01;14.57;;;10.10;;
20621;SDS011;10470;42.670;23.354;2024-02-23T04:31:26;17.70;;;10.83;;
20621;SDS011;10470;42.670;23.354;2024-02-23T04:33:51;15.27;;;11.07;;
20621;SDS011;10470;42.670;23.354;2024-02-23T04:36:19;17.67;;;11.00;;
20621;SDS011;10470;42.670;23.354;2024-02-23T04:38:44;14.33;;;10.90;;
20621;SDS011;10470;42.670;23.354;2024-02-23T04:41:10;16.63;;;10.90;;
20621;SDS011;10470;42.670;23.354;2024-02-23T04:43:35;18.30;;;11.30;;
20621;SDS011;10470;42.670;23.354;2024-02-23T04:46:00;17.60;;;10.77;;
20621;SDS011;10470;42.670;23.354;2024-02-23T04:48:26;15.90;;;11.00;;
20621;SDS011;10470;42.670;23.354;2024-02-23T04:50:51;15.90;;;11.83;;
20621;SDS011;10470;42.670;23.354;2024-02-23T04:53:16;19.90;;;11.93;;
20621;SDS011;10470;42.670;23.354;2024-02-23T04:55:42;18.97;;;12.07;;
20621;SDS011;10470;42.670;23.354;2024-02-23T04:58:07;19.90;;;11.60;;
20621;SDS011;10470;42.670;23.354;2024-02-23T05:00:33;17.83;;;11.73;;
20621;SDS011;10470;42.670;23.354;2024-02-23T05:03:01;15.47;;;11.37;;
20621;SDS011;10470;42.670;23.354;2024-02-23T05:05:30;19.40;;;11.87;;
20621;SDS011;10470;42.670;23.354;2024-02-23T05:07:55;19.93;;;12.20;;
20621;SDS011;10470;42.670;23.354;2024-02-23T05:10:20;19.53;;;12.10;;
20621;SDS011;10470;42.670;23.354;2024-02-23T05:12:47;17.63;;;11.37;;
20621;SDS011;10470;42.670;23.354;2024-02-23T05:15:13;20.30;;;13.23;;
20621;SDS011;10470;42.670;23.354;2024-02-23T05:17:38;19.43;;;12.70;;
20621;SDS011;10470;42.670;23.354;2024-02-23T05:20:03;17.10;;;11.53;;
20621;SDS011;10470;42.670;23.354;2024-02-23T05:22:35;18.37;;;11.13;;
20621;SDS011;10470;42.670;23.354;2024-02-23T05:25:00;15.00;;;10.67;;
20621;SDS011;10470;42.670;23.354;2024-02-23T05:27:25;22.93;;;15.27;;
20621;SDS011;10470;42.670;23.354;2024-02-23T05:29:52;23.17;;;14.17;;
20621;SDS011;10470;42.670;23.354;2024-02-23T05:32:17;19.27;;;12.53;;
20621;SDS011;10470;42.670;23.354;2024-02-23T05:34:42;22.23;;;12.43;;
20621;SDS011;10470;42.670;23.354;2024-02-23T05:37:08;20.00;;;13.13;;
20621;SDS011;10470;42.670;23.354;2024-02-23T05:39:33;19.17;;;11.73;;
20621;SDS011;10470;42.670;23.354;2024-02-23T05:41:58;23.23;;;14.60;;
20621;SDS011;10470;42.670;23.354;2024-02-23T05:44:24;23.67;;;14.47;;
20621;SDS011;10470;42.670;23.354;2024-02-23T05:46:50;19.57;;;13.30;;
20621;SDS011;10470;42.670;23.354;2024-02-23T05:49:15;21.60;;;14.47;;
20621;SDS011;10470;42.670;23.354;2024-02-23T05:51:41;27.47;;;15.27;;
20621;SDS011;10470;42.670;23.354;2024-02-23T05:54:06;23.60;;;15.20;;
20621;SDS011;10470;42.670;23.354;2024-02-23T05:56:31;22.60;;;14.00;;
20621;SDS011;10470;42.670;23.354;2024-02-23T05:58:56;24.00;;;13.23;;
20621;SDS011;10470;42.670;23.354;2024-02-23T06:01:22;24.90;;;14.67;;
20621;SDS011;10470;42.670;23.354;2024-02-23T06:03:47;24.43;;;13.90;;
20621;SDS011;10470;42.670;23.354;2024-02-23T06:06:12;21.30;;;13.27;;
20621;SDS011;10470;42.670;23.354;2024-02-23T06:08:39;19.07;;;12.90;;
20621;SDS011;10470;42.670;23.354;2024-02-23T06:11:04;18.30;;;12.70;;
20621;SDS011;10470;42.670;23.354;2024-02-23T06:13:30;22.63;;;13.10;;
20621;SDS011;10470;42.670;23.354;2024-02-23T06:15:55;21.73;;;13.63;;
20621;SDS011;10470;42.670;23.354;2024-02-23T06:18:20;27.00;;;13.37;;
20621;SDS011;10470;42.670;23.354;2024-02-23T06:20:45;25.23;;;14.37;;
20621;SDS011;10470;42.670;23.354;2024-02-23T06:23:11;21.60;;;13.87;;
20621;SDS011;10470;42.670;23.354;2024-02-23T06:25:36;20.43;;;12.93;;
20621;SDS011;10470;42.670;23.354;2024-02-23T06:28:01;21.17;;;13.63;;
20621;SDS011;10470;42.670;23.354;2024-02-23T06:30:26;20.77;;;13.47;;
20621;SDS011;10470;42.670;23.354;2024-02-23T06:32:52;20.97;;;13.03;;
20621;SDS011;10470;42.670;23.354;2024-02-23T06:35:17;22.93;;;13.43;;
20621;SDS011;10470;42.670;23.354;2024-02-23T06:37:42;19.90;;;13.23;;
20621;SDS011;10470;42.670;23.354;2024-02-23T06:40:07;16.87;;;12.23;;
20621;SDS011;10470;42.670;23.354;2024-02-23T06:42:33;22.53;;;13.30;;
20621;SDS011;10470;42.670;23.354;2024-02-23T06:44:58;21.33;;;13.10;;
20621;SDS011;10470;42.670;23.354;2024-02-23T06:47:24;24.80;;;14.03;;
20621;SDS011;10470;42.670;23.354;2024-02-23T06:49:50;23.23;;;13.53;;
20621;SDS011;10470;42.670;23.354;2024-02-23T06:52:15;22.47;;;13.60;;
20621;SDS011;10470;42.670;23.354;2024-02-23T06:54:41;25.13;;;14.47;;
20621;SDS011;10470;42.670;23.354;2024-02-23T06:57:06;23.33;;;13.97;;
20621;SDS011;10470;42.670;23.354;2024-02-23T06:59:31;18.90;;;12.77;;
20621;SDS011;10470;42.670;23.354;2024-02-23T07:01:57;23.27;;;13.27;;
20621;SDS011;10470;42.670;23.354;2024-02-23T07:04:22;19.30;;;12.53;;
20621;SDS011;10470;42.670;23.354;2024-02-23T07:06:47;19.30;;;13.00;;
20621;SDS011;10470;42.670;23.354;2024-02-23T07:09:13;23.63;;;14.93;;
20621;SDS011;10470;42.670;23.354;2024-02-23T07:11:38;20.60;;;13.30;;
20621;SDS011;10470;42.670;23.354;2024-02-23T07:14:04;22.23;;;13.67;;
20621;SDS011;10470;42.670;23.354;2024-02-23T07:16:30;24.90;;;12.77;;
20621;SDS011;10470;42.670;23.354;2024-02-23T07:18:55;26.07;;;14.23;;
20621;SDS011;10470;42.670;23.354;2024-02-23T07:21:21;21.27;;;14.00;;
20621;SDS011;10470;42.670;23.354;2024-02-23T07:23:47;22.30;;;14.50;;
20621;SDS011;10470;42.670;23.354;2024-02-23T07:26:12;22.30;;;14.63;;
20621;SDS011;10470;42.670;23.354;2024-02-23T07:28:37;25.40;;;15.63;;
20621;SDS011;10470;42.670;23.354;2024-02-23T07:31:03;22.80;;;15.10;;
20621;SDS011;10470;42.670;23.354;2024-02-23T07:33:28;22.97;;;14.40;;
20621;SDS011;10470;42.670;23.354;2024-02-23T07:35:53;22.10;;;14.63;;
20621;SDS011;10470;42.670;23.354;2024-02-23T07:38:19;21.53;;;14.43;;
20621;SDS011;10470;42.670;23.354;2024-02-23T07:40:44;19.47;;;13.90;;
20621;SDS011;10470;42.670;23.354;2024-02-23T07:43:09;24.07;;;13.83;;
20621;SDS011;10470;42.670;23.354;2024-02-23T07:45:36;21.67;;;14.37;;
20621;SDS011;10470;42.670;23.354;2024-02-23T07:48:01;21.93;;;14.40;;
20621;SDS011;10470;42.670;23.354;2024-02-23T07:50:27;24.07;;;14.73;;
20621;SDS011;10470;42.670;23.354;2024-02-23T07:52:52;21.93;;;14.57;;
20621;SDS011;10470;42.670;23.354;2024-02-23T07:55:17;23.07;;;14.30;;
20621;SDS011;10470;42.670;23.354;2024-02-23T07:57:42;21.03;;;13.40;;
20621;SDS011;10470;42.670;23.354;2024-02-23T08:00:08;19.33;;;13.10;;
20621;SDS011;10470;42.670;23.354;2024-02-23T08:02:34;21.43;;;13.77;;
20621;SDS011;10470;42.670;23.354;2024-02-23T08:05:00;23.80;;;14.23;;
20621;SDS011;10470;42.670;23.354;2024-02-23T08:07:25;23.90;;;14.93;;
20621;SDS011;10470;42.670;23.354;2024-02-23T08:09:53;24.90;;;14.50;;
20621;SDS011;10470;42.670;23.354;2024-02-23T08:12:18;21.07;;;14.40;;
20621;SDS011;10470;42.670;23.354;2024-02-23T08:14:43;24.37;;;15.57;;
20621;SDS011;10470;42.670;23.354;2024-02-23T08:17:10;22.43;;;14.77;;
20621;SDS011;10470;42.670;23.354;2024-02-23T08:19:36;23.10;;;15.10;;
20621;SDS011;10470;42.670;23.354;2024-02-23T08:22:01;21.77;;;14.83;;
20621;SDS011;10470;42.670;23.354;2024-02-23T08:24:26;19.23;;;12.20;;
20621;SDS011;10470;42.670;23.354;2024-02-23T08:26:51;26.00;;;15.00;;
20621;SDS011;10470;42.670;23.354;2024-02-23T08:29:17;22.83;;;14.67;;
20621;SDS011;10470;42.670;23.354;2024-02-23T08:31:42;20.63;;;14.03;;
20621;SDS011;10470;42.670;23.354;2024-02-23T08:34:07;19.83;;;13.00;;
20621;SDS011;10470;42.670;23.354;2024-02-23T08:36:32;22.67;;;14.60;;
20621;SDS011;10470;42.670;23.354;2024-02-23T08:38:57;24.43;;;14.23;;
20621;SDS011;10470;42.670;23.354;2024-02-23T08:41:23;20.47;;;13.73;;
20621;SDS011;10470;42.670;23.354;2024-02-23T08:43:48;19.00;;;12.77;;
20621;SDS011;10470;42.670;23.354;2024-02-23T08:46:14;17.70;;;11.87;;
20621;SDS011;10470;42.670;23.354;2024-02-23T08:48:40;20.63;;;13.37;;
20621;SDS011;10470;42.670;23.354;2024-02-23T08:51:05;21.90;;;13.03;;
20621;SDS011;10470;42.670;23.354;2024-02-23T08:53:30;19.03;;;12.37;;
20621;SDS011;10470;42.670;23.354;2024-02-23T08:55:55;18.43;;;11.60;;
20621;SDS011;10470;42.670;23.354;2024-02-23T08:58:21;17.67;;;11.70;;
20621;SDS011;10470;42.670;23.354;2024-02-23T09:00:46;17.37;;;11.50;;
20621;SDS011;10470;42.670;23.354;2024-02-23T09:03:11;17.90;;;11.97;;
20621;SDS011;10470;42.670;23.354;2024-02-23T09:05:37;16.77;;;11.33;;
20621;SDS011;10470;42.670;23.354;2024-02-23T09:08:02;16.67;;;11.27;;
20621;SDS011;10470;42.670;23.354;2024-02-23T09:10:27;16.70;;;11.70;;
20621;SDS011;10470;42.670;23.354;2024-02-23T09:12:52;16.23;;;10.90;;
20621;SDS011;10470;42.670;23.354;2024-02-23T09:15:18;19.60;;;11.07;;
20621;SDS011;10470;42.670;23.354;2024-02-23T09:17:43;15.63;;;10.00;;
20621;SDS011;10470;42.670;23.354;2024-02-23T09:20:08;14.07;;;9.73;;
20621;SDS011;10470;42.670;23.354;2024-02-23T09:22:34;15.00;;;9.10;;
20621;SDS011;10470;42.670;23.354;2024-02-23T09:25:00;16.93;;;10.40;;
20621;SDS011;10470;42.670;23.354;2024-02-23T09:27:26;18.60;;;9.63;;
20621;SDS011;10470;42.670;23.354;2024-02-23T09:29:51;13.73;;;9.57;;
20621;SDS011;10470;42.670;23.354;2024-02-23T09:32:17;13.43;;;8.57;;
20621;SDS011;10470;42.670;23.354;2024-02-23T09:34:42;14.63;;;8.80;;
20621;SDS011;10470;42.670;23.354;2024-02-23T09:37:07;14.23;;;7.20;;
20621;SDS011;10470;42.670;23.354;2024-02-23T09:39:32;15.83;;;9.13;;
20621;SDS011;10470;42.670;23.354;2024-02-23T09:41:58;11.43;;;8.50;;
20621;SDS011;10470;42.670;23.354;2024-02-23T09:44:23;8.30;;;6.83;;
20621;SDS011;10470;42.670;23.354;2024-02-23T09:46:50;10.47;;;7.13;;
20621;SDS011;10470;42.670;23.354;2024-02-23T09:49:16;11.80;;;6.87;;
20621;SDS011;10470;42.670;23.354;2024-02-23T09:51:41;14.20;;;7.20;;
20621;SDS011;10470;42.670;23.354;2024-02-23T09:54:06;6.77;;;5.70;;
20621;SDS011;10470;42.670;23.354;2024-02-23T09:56:32;7.17;;;5.87;;
20621;SDS011;10470;42.670;23.354;2024-02-23T09:59:00;6.80;;;5.60;;
20621;SDS011;10470;42.670;23.354;2024-02-23T10:01:27;6.90;;;5.27;;
20621;SDS011;10470;42.670;23.354;2024-02-23T10:03:54;6.23;;;5.10;;
20621;SDS011;10470;42.670;23.354;2024-02-23T10:06:22;9.03;;;6.40;;
20621;SDS011;10470;42.670;23.354;2024-02-23T10:08:47;5.93;;;4.50;;
20621;SDS011;10470;42.670;23.354;2024-02-23T10:11:12;7.07;;;4.27;;
20621;SDS011;10470;42.670;23.354;2024-02-23T10:13:37;6.53;;;4.70;;
20621;SDS011;10470;42.670;23.354;2024-02-23T10:16:03;6.63;;;4.10;;
20621;SDS011;10470;42.670;23.354;2024-02-23T10:18:29;7.60;;;4.97;;
20621;SDS011;10470;42.670;23.354;2024-02-23T10:20:54;8.70;;;4.50;;
20621;SDS011;10470;42.670;23.354;2024-02-23T10:23:21;6.13;;;4.50;;
20621;SDS011;10470;42.670;23.354;2024-02-23T10:25:46;7.43;;;4.50;;
20621;SDS011;10470;42.670;23.354;2024-02-23T10:28:12;4.83;;;4.07;;
20621;SDS011;10470;42.670;23.354;2024-02-23T10:30:37;4.30;;;3.87;;
20621;SDS011;10470;42.670;23.354;2024-02-23T10:33:06;7.90;;;4.13;;
20621;SDS011;10470;42.670;23.354;2024-02-23T10:35:31;5.33;;;4.07;;
20621;SDS011;10470;42.670;23.354;2024-02-23T10:37:57;5.47;;;3.70;;
20621;SDS011;10470;42.670;23.354;2024-02-23T10:40:23;4.10;;;3.70;;
20621;SDS011;10470;42.670;23.354;2024-02-23T10:42:51;5.70;;;3.83;;
20621;SDS011;10470;42.670;23.354;2024-02-23T10:45:21;4.23;;;3.50;;
20621;SDS011;10470;42.670;23.354;2024-02-23T10:47:47;4.23;;;3.50;;
20621;SDS011;10470;42.670;23.354;2024-02-23T10:50:13;5.93;;;3.33;;
20621;SDS011;10470;42.670;23.354;2024-02-23T10:52:41;9.67;;;3.70;;
20621;SDS011;10470;42.670;23.354;2024-02-23T10:55:08;6.83;;;3.70;;
20621;SDS011;10470;42.670;23.354;2024-02-23T10:57:34;5.87;;;3.80;;
20621;SDS011;10470;42.670;23.354;2024-02-23T10:59:59;7.20;;;4.00;;
20621;SDS011;10470;42.670;23.354;2024-02-23T11:02:26;6.03;;;3.87;;
20621;SDS011;10470;42.670;23.354;2024-02-23T11:04:54;4.73;;;3.43;;
20621;SDS011;10470;42.670;23.354;2024-02-23T11:07:20;7.37;;;3.50;;
20621;SDS011;10470;42.670;23.354;2024-02-23T11:09:49;7.40;;;2.87;;
20621;SDS011;10470;42.670;23.354;2024-02-23T11:12:23;4.03;;;2.80;;
20621;SDS011;10470;42.670;23.354;2024-02-23T11:14:49;2.43;;;2.23;;
20621;SDS011;10470;42.670;23.354;2024-02-23T11:17:18;6.60;;;2.90;;
20621;SDS011;10470;42.670;23.354;2024-02-23T11:19:45;6.23;;;3.33;;
20621;SDS011;10470;42.670;23.354;2024-02-23T11:22:11;3.23;;;2.53;;
20621;SDS011;10470;42.670;23.354;2024-02-23T11:24:41;2.13;;;2.00;;
20621;SDS011;10470;42.670;23.354;2024-02-23T11:27:12;2.97;;;2.67;;
20621;SDS011;10470;42.670;23.354;2024-02-23T11:29:37;2.17;;;1.90;;
20621;SDS011;10470;42.670;23.354;2024-02-23T11:32:11;2.60;;;2.20;;
20621;SDS011;10470;42.670;23.354;2024-02-23T11:34:37;2.37;;;2.17;;
20621;SDS011;10470;42.670;23.354;2024-02-23T11:37:13;2.33;;;2.13;;
20621;SDS011;10470;42.670;23.354;2024-02-23T11:39:38;2.47;;;2.10;;
20621;SDS011;10470;42.670;23.354;2024-02-23T11:42:04;2.30;;;2.10;;
20621;SDS011;10470;42.670;23.354;2024-02-23T11:44:30;2.50;;;2.30;;
20621;SDS011;10470;42.670;23.354;2024-02-23T11:46:56;3.43;;;2.50;;
20621;SDS011;10470;42.670;23.354;2024-02-23T11:49:27;3.47;;;2.20;;
20621;SDS011;10470;42.670;23.354;2024-02-23T11:51:52;5.33;;;2.40;;
20621;SDS011;10470;42.670;23.354;2024-02-23T11:54:18;2.67;;;2.20;;
20621;SDS011;10470;42.670;23.354;2024-02-23T11:56:43;2.33;;;2.00;;
20621;SDS011;10470;42.670;23.354;2024-02-23T11:59:08;2.20;;;1.90;;
20621;SDS011;10470;42.670;23.354;2024-02-23T12:01:34;4.33;;;2.90;;
20621;SDS011;10470;42.670;23.354;2024-02-23T12:04:00;15.30;;;3.47;;
20621;SDS011;10470;42.670;23.354;2024-02-23T12:06:25;4.47;;;2.20;;
20621;SDS011;10470;42.670;23.354;2024-02-23T12:08:54;4.90;;;2.70;;
20621;SDS011;10470;42.670;23.354;2024-02-23T12:11:19;8.60;;;2.37;;
20621;SDS011;10470;42.670;23.354;2024-02-23T12:13:45;2.33;;;2.13;;
20621;SDS011;10470;42.670;23.354;2024-02-23T12:16:11;2.73;;;2.10;;
20621;SDS011;10470;42.670;23.354;2024-02-23T12:18:36;13.60;;;3.03;;
20621;SDS011;10470;42.670;23.354;2024-02-23T12:21:04;4.23;;;1.90;;
20621;SDS011;10470;42.670;23.354;2024-02-23T12:23:41;2.80;;;2.47;;
20621;SDS011;10470;42.670;23.354;2024-02-23T12:26:07;1.97;;;1.70;;
20621;SDS011;10470;42.670;23.354;2024-02-23T12:28:33;4.23;;;2.30;;
20621;SDS011;10470;42.670;23.354;2024-02-23T12:30:58;2.17;;;1.97;;
20621;SDS011;10470;42.670;23.354;2024-02-23T12:33:24;2.67;;;2.07;;
20621;SDS011;10470;42.670;23.354;2024-02-23T12:35:53;3.27;;;2.07;;
20621;SDS011;10470;42.670;23.354;2024-02-23T12:38:18;2.30;;;1.90;;
20621;SDS011;10470;42.670;23.354;2024-02-23T12:40:44;7.60;;;3.37;;
20621;SDS011;10470;42.670;23.354;2024-02-23T12:43:09;6.97;;;3.57;;
20621;SDS011;10470;42.670;23.354;2024-02-23T12:45:34;3.00;;;2.70;;
20621;SDS011;10470;42.670;23.354;2024-02-23T12:48:00;3.10;;;2.00;;
20621;SDS011;10470;42.670;23.354;2024-02-23T12:50:25;3.40;;;2.77;;
20621;SDS011;10470;42.670;23.354;2024-02-23T12:52:50;2.30;;;1.93;;
20621;SDS011;10470;42.670;23.354;2024-02-23T12:55:17;2.10;;;1.67;;
20621;SDS011;10470;42.670;23.354;2024-02-23T12:57:42;3.00;;;1.83;;
20621;SDS011;10470;42.670;23.354;2024-02-23T13:00:07;1.87;;;1.77;;
20621;SDS011;10470;42.670;23.354;2024-02-23T13:02:33;2.20;;;1.80;;
20621;SDS011;10470;42.670;23.354;2024-02-23T13:04:59;2.47;;;1.97;;
20621;SDS011;10470;42.670;23.354;2024-02-23T13:07:24;2.20;;;2.00;;
20621;SDS011;10470;42.670;23.354;2024-02-23T13:09:49;2.50;;;1.90;;
20621;SDS011;10470;42.670;23.354;2024-02-23T13:12:15;4.27;;;2.50;;
20621;SDS011;10470;42.670;23.354;2024-02-23T13:14:40;2.47;;;2.20;;
20621;SDS011;10470;42.670;23.354;2024-02-23T13:17:05;5.30;;;2.60;;
20621;SDS011;10470;42.670;23.354;2024-02-23T13:19:30;8.17;;;2.90;;
20621;SDS011;10470;42.670;23.354;2024-02-23T13:21:56;7.57;;;3.80;;
20621;SDS011;10470;42.670;23.354;2024-02-23T13:24:21;2.63;;;2.43;;
20621;SDS011;10470;42.670;23.354;2024-02-23T13:26:46;2.87;;;2.57;;
20621;SDS011;10470;42.670;23.354;2024-02-23T13:29:12;2.77;;;2.17;;
20621;SDS011;10470;42.670;23.354;2024-02-23T13:31:37;2.97;;;2.00;;
20621;SDS011;10470;42.670;23.354;2024-02-23T13:34:03;2.13;;;1.83;;
20621;SDS011;10470;42.670;23.354;2024-02-23T13:36:28;3.90;;;2.10;;
20621;SDS011;10470;42.670;23.354;2024-02-23T13:38:54;4.10;;;2.20;;
20621;SDS011;10470;42.670;23.354;2024-02-23T13:41:19;3.73;;;2.63;;
20621;SDS011;10470;42.670;23.354;2024-02-23T13:43:44;3.17;;;2.87;;
20621;SDS011;10470;42.670;23.354;2024-02-23T13:46:10;4.13;;;2.40;;
20621;SDS011;10470;42.670;23.354;2024-02-23T13:48:35;7.10;;;2.30;;
20621;SDS011;10470;42.670;23.354;2024-02-23T13:51:00;5.43;;;2.40;;
20621;SDS011;10470;42.670;23.354;2024-02-23T13:53:28;8.70;;;2.47;;
20621;SDS011;10470;42.670;23.354;2024-02-23T13:55:54;6.63;;;2.60;;
20621;SDS011;10470;42.670;23.354;2024-02-23T13:58:19;4.43;;;2.23;;
20621;SDS011;10470;42.670;23.354;2024-02-23T14:00:44;3.77;;;2.40;;
20621;SDS011;10470;42.670;23.354;2024-02-23T14:03:10;4.23;;;3.50;;
20621;SDS011;10470;42.670;23.354;2024-02-23T14:05:40;3.60;;;2.20;;
20621;SDS011;10470;42.670;23.354;2024-02-23T14:08:09;3.77;;;2.20;;
20621;SDS011;10470;42.670;23.354;2024-02-23T14:10:35;3.20;;;2.47;;
20621;SDS011;10470;42.670;23.354;2024-02-23T14:13:00;4.77;;;2.03;;